createdAt,value
2022-10-22T00:00:42.904Z,2.90
2022-10-22T00:03:10.043Z,2.67
2022-10-22T00:05:37.235Z,3.17
2022-10-22T00:08:04.406Z,3.60
2022-10-22T00:10:31.626Z,2.97
2022-10-22T00:13:00.102Z,2.97
2022-10-22T00:15:27.153Z,2.47
2022-10-22T00:17:54.148Z,2.57
2022-10-22T00:20:21.366Z,2.27
2022-10-22T00:22:48.772Z,2.27
2022-10-22T00:25:16.308Z,1.87
2022-10-22T00:27:44.455Z,2.27
2022-10-22T00:30:12.199Z,2.30
2022-10-22T00:32:39.586Z,2.20
2022-10-22T00:35:07.325Z,2.10
2022-10-22T00:37:34.697Z,1.97
2022-10-22T00:40:01.890Z,2.13
2022-10-22T00:42:30.645Z,1.77
2022-10-22T00:45:04.673Z,1.77
2022-10-22T00:47:35.585Z,1.77
2022-10-22T00:50:06.337Z,1.63
2022-10-22T00:52:34.187Z,1.47
2022-10-22T00:55:01.714Z,1.50
2022-10-22T00:57:29.965Z,1.47
2022-10-22T00:59:58.224Z,1.37
2022-10-22T01:02:25.507Z,1.50
2022-10-22T01:04:52.903Z,1.57
2022-10-22T01:07:22.374Z,1.50
2022-10-22T01:10:13.382Z,1.30
2022-10-22T01:13:01.636Z,1.30
2022-10-22T01:15:49.710Z,1.30
2022-10-22T01:18:25.257Z,1.43
2022-10-22T01:20:58.256Z,1.37
2022-10-22T01:24:06.647Z,1.40
2022-10-22T01:26:58.617Z,1.17
2022-10-22T01:29:33.293Z,1.43
2022-10-22T01:32:08.666Z,1.20
2022-10-22T01:34:39.076Z,1.17
2022-10-22T01:37:08.675Z,1.30
2022-10-22T01:39:40.136Z,1.13
2022-10-22T01:42:07.314Z,1.20
2022-10-22T01:44:37.449Z,1.03
2022-10-22T01:47:48.246Z,1.00
2022-10-22T01:50:54.658Z,1.00
2022-10-22T01:53:30.686Z,1.20
2022-10-22T01:56:03.687Z,1.17
2022-10-22T01:58:59.623Z,0.83
2022-10-22T02:01:59.323Z,0.90
2022-10-22T02:04:32.606Z,0.90
2022-10-22T02:07:05.084Z,1.00
2022-10-22T02:09:34.143Z,0.90
2022-10-22T02:14:40.045Z,0.73
2022-10-22T02:17:11.540Z,1.00
2022-10-22T02:19:57.754Z,1.00
2022-10-22T02:22:26.489Z,0.80
2022-10-22T02:24:53.805Z,0.63
2022-10-22T02:27:27.478Z,0.77
2022-10-22T02:30:07.018Z,1.00
2022-10-22T02:32:42.394Z,0.87
2022-10-22T02:35:14.074Z,0.80
2022-10-22T02:37:42.030Z,0.87
2022-10-22T02:40:10.103Z,0.70
2022-10-22T02:42:41.211Z,0.80
2022-10-22T02:45:09.304Z,0.77
2022-10-22T02:47:36.445Z,0.77
2022-10-22T02:50:06.537Z,0.70
2022-10-22T02:52:36.586Z,0.70
2022-10-22T02:55:07.892Z,0.70
2022-10-22T02:57:35.394Z,1.30
2022-10-22T03:00:02.635Z,0.73
2022-10-22T03:02:29.703Z,0.73
2022-10-22T03:04:56.736Z,0.80
2022-10-22T03:07:23.764Z,0.73
2022-10-22T03:09:50.751Z,0.63
2022-10-22T03:12:17.867Z,0.70
2022-10-22T03:14:44.856Z,0.67
2022-10-22T03:17:12.013Z,0.87
2022-10-22T03:19:39.117Z,0.60
2022-10-22T03:22:11.916Z,0.57
2022-10-22T03:24:44.535Z,0.67
2022-10-22T03:27:15.298Z,0.70
2022-10-22T03:29:43.106Z,0.93
2022-10-22T03:32:10.412Z,0.80
2022-10-22T03:34:37.542Z,0.80
2022-10-22T03:37:04.719Z,0.60
2022-10-22T03:39:34.977Z,0.80
2022-10-22T03:42:02.947Z,0.50
2022-10-22T03:44:30.817Z,0.80
2022-10-22T03:47:00.266Z,0.70
2022-10-22T03:49:29.726Z,0.60
2022-10-22T03:51:57.237Z,0.60
2022-10-22T03:54:24.532Z,0.70
2022-10-22T03:56:51.525Z,0.60
2022-10-22T03:59:18.772Z,0.73
2022-10-22T04:01:45.786Z,0.70
2022-10-22T04:04:13.242Z,0.60
2022-10-22T04:06:40.205Z,0.60
2022-10-22T04:09:07.319Z,0.60
2022-10-22T04:11:34.398Z,0.70
2022-10-22T04:14:04.539Z,0.43
2022-10-22T04:16:32.929Z,0.70
2022-10-22T04:19:00.194Z,0.80
2022-10-22T04:21:27.205Z,0.53
2022-10-22T04:23:54.879Z,0.80
2022-10-22T04:26:22.059Z,0.50
2022-10-22T04:28:52.001Z,0.60
2022-10-22T04:31:21.701Z,0.70
2022-10-22T04:33:56.241Z,0.60
2022-10-22T04:36:24.612Z,0.60
2022-10-22T04:39:01.824Z,0.70
2022-10-22T04:41:37.250Z,0.40
2022-10-22T04:44:06.576Z,0.57
2022-10-22T04:46:35.361Z,0.57
2022-10-22T04:49:04.215Z,0.50
2022-10-22T04:51:31.218Z,0.67
2022-10-22T04:53:58.437Z,0.50
2022-10-22T04:56:30.687Z,0.60
2022-10-22T04:59:01.411Z,0.63
2022-10-22T05:01:40.153Z,0.60
2022-10-22T05:04:15.503Z,1.00
2022-10-22T05:06:44.852Z,0.73
2022-10-22T05:09:17.680Z,0.70
2022-10-22T05:11:49.180Z,0.50
2022-10-22T05:14:25.362Z,0.70
2022-10-22T05:16:53.766Z,0.60
2022-10-22T05:19:24.687Z,0.50
2022-10-22T05:21:57.539Z,0.90
2022-10-22T05:24:25.745Z,0.60
2022-10-22T05:26:54.629Z,0.70
2022-10-22T05:29:22.101Z,0.70
2022-10-22T05:31:49.345Z,0.50
2022-10-22T05:34:18.047Z,0.73
2022-10-22T05:36:45.711Z,0.60
2022-10-22T05:39:13.623Z,0.67
2022-10-22T05:41:40.966Z,0.60
2022-10-22T05:44:08.153Z,0.60
2022-10-22T05:46:36.372Z,0.70
2022-10-22T05:49:06.178Z,0.60
2022-10-22T05:51:35.282Z,0.60
2022-10-22T05:54:04.571Z,0.47
2022-10-22T05:56:32.370Z,0.70
2022-10-22T05:59:00.253Z,0.60
2022-10-22T06:01:32.696Z,0.60
2022-10-22T06:04:01.940Z,0.90
2022-10-22T06:06:35.555Z,0.77
2022-10-22T06:09:08.019Z,0.60
2022-10-22T06:11:35.477Z,0.70
2022-10-22T06:14:03.657Z,0.70
2022-10-22T06:16:32.351Z,0.63
2022-10-22T06:19:03.134Z,0.67
2022-10-22T06:21:31.842Z,0.60
2022-10-22T06:24:00.837Z,0.70
2022-10-22T06:26:28.688Z,0.87
2022-10-22T06:28:57.650Z,0.90
2022-10-22T06:31:26.628Z,0.63
2022-10-22T06:33:54.085Z,0.60
2022-10-22T06:36:23.528Z,0.60
2022-10-22T06:38:53.048Z,0.80
2022-10-22T06:41:22.955Z,0.53
2022-10-22T06:43:54.253Z,0.47
2022-10-22T06:46:23.005Z,0.57
2022-10-22T06:48:52.414Z,0.57
2022-10-22T06:51:21.374Z,0.50
2022-10-22T06:53:49.738Z,0.53
2022-10-22T06:56:20.204Z,0.50
2022-10-22T06:58:52.960Z,0.60
2022-10-22T07:01:23.588Z,0.53
2022-10-22T07:03:53.161Z,0.50
2022-10-22T07:06:21.886Z,0.53
2022-10-22T07:08:49.437Z,0.60
2022-10-22T07:11:19.454Z,0.50
2022-10-22T07:13:47.882Z,0.60
2022-10-22T07:16:16.863Z,0.50
2022-10-22T07:18:45.015Z,0.60
2022-10-22T07:21:13.822Z,0.30
2022-10-22T07:23:41.134Z,0.50
2022-10-22T07:26:14.785Z,0.43
2022-10-22T07:28:42.665Z,0.50
2022-10-22T07:31:11.908Z,0.60
2022-10-22T07:33:39.472Z,0.67
2022-10-22T07:36:13.075Z,0.53
2022-10-22T07:38:40.186Z,0.63
2022-10-22T07:41:07.303Z,0.53
2022-10-22T07:43:34.717Z,0.70
2022-10-22T07:46:03.036Z,0.50
2022-10-22T07:48:30.181Z,0.63
2022-10-22T07:50:58.493Z,0.50
2022-10-22T07:53:25.960Z,0.50
2022-10-22T07:55:53.516Z,0.50
2022-10-22T07:58:22.254Z,0.70
2022-10-22T08:00:51.583Z,0.70
2022-10-22T08:03:18.963Z,0.63
2022-10-22T08:05:46.425Z,0.77
2022-10-22T08:08:15.475Z,0.60
2022-10-22T08:10:44.053Z,0.47
2022-10-22T08:13:11.885Z,0.70
2022-10-22T08:15:39.261Z,0.63
2022-10-22T08:18:06.805Z,0.73
2022-10-22T08:20:33.951Z,0.90
2022-10-22T08:23:01.359Z,0.80
2022-10-22T08:25:30.601Z,0.67
2022-10-22T08:27:59.127Z,0.80
2022-10-22T08:30:27.951Z,0.70
2022-10-22T08:32:55.127Z,0.70
2022-10-22T08:35:23.195Z,0.77
2022-10-22T08:37:50.458Z,0.70
2022-10-22T08:40:33.934Z,0.87
2022-10-22T08:43:42.277Z,0.60
2022-10-22T08:46:46.520Z,0.63
2022-10-22T08:49:21.040Z,0.80
2022-10-22T08:51:48.796Z,0.60
2022-10-22T08:54:33.654Z,0.80
2022-10-22T08:57:09.770Z,0.60
2022-10-22T09:00:03.435Z,0.90
2022-10-22T09:02:47.477Z,0.80
2022-10-22T09:05:29.852Z,0.67
2022-10-22T09:07:57.822Z,0.70
2022-10-22T09:10:30.710Z,0.80
2022-10-22T09:12:58.311Z,0.60
2022-10-22T09:15:25.696Z,1.00
2022-10-22T09:18:37.584Z,0.67
2022-10-22T09:21:24.233Z,0.90
2022-10-22T09:24:27.489Z,0.60
2022-10-22T09:26:57.872Z,0.80
2022-10-22T09:29:32.795Z,0.70
2022-10-22T09:32:00.012Z,0.70
2022-10-22T09:34:29.261Z,0.90
2022-10-22T09:37:04.827Z,0.70
2022-10-22T09:39:40.247Z,0.70
2022-10-22T09:42:08.789Z,0.70
2022-10-22T09:44:37.600Z,0.80
2022-10-22T09:47:37.353Z,0.80
2022-10-22T09:50:21.820Z,0.60
2022-10-22T09:53:21.531Z,0.53
2022-10-22T09:58:28.712Z,0.57
2022-10-22T10:01:01.200Z,0.80
2022-10-22T10:03:33.244Z,0.90
2022-10-22T10:06:05.994Z,0.83
2022-10-22T10:08:33.730Z,1.00
2022-10-22T10:11:17.271Z,0.87
2022-10-22T10:13:54.415Z,0.50
2022-10-22T10:16:47.415Z,0.80
2022-10-22T10:19:32.769Z,0.90
2022-10-22T10:22:14.485Z,0.87
2022-10-22T10:25:00.305Z,0.70
2022-10-22T10:27:36.537Z,0.70
2022-10-22T10:30:21.538Z,0.60
2022-10-22T10:32:58.018Z,0.70
2022-10-22T10:35:55.391Z,0.77
2022-10-22T10:38:52.786Z,0.43
2022-10-22T10:41:37.742Z,0.50
2022-10-22T10:44:35.808Z,0.70
2022-10-22T10:47:39.153Z,0.70
2022-10-22T10:50:18.427Z,0.77
2022-10-22T10:53:14.506Z,0.70
2022-10-22T10:56:07.154Z,0.57
2022-10-22T10:59:07.763Z,0.50
2022-10-22T11:01:43.436Z,0.73
2022-10-22T11:04:27.043Z,0.70
2022-10-22T11:07:10.770Z,0.50
2022-10-22T11:09:59.731Z,0.40
2022-10-22T11:12:36.890Z,0.80
2022-10-22T11:15:25.738Z,0.50
2022-10-22T11:18:00.026Z,1.00
2022-10-22T11:20:54.024Z,0.80
2022-10-22T11:23:44.351Z,0.53
2022-10-22T11:26:22.693Z,0.50
2022-10-22T11:28:54.322Z,0.80
2022-10-22T11:31:25.686Z,1.00
2022-10-22T11:34:33.082Z,0.90
2022-10-22T11:37:01.614Z,0.90
2022-10-22T11:39:45.641Z,0.70
2022-10-22T11:42:20.660Z,0.50
2022-10-22T11:44:59.088Z,0.47
2022-10-22T11:47:29.110Z,0.60
2022-10-22T11:50:18.137Z,0.60
2022-10-22T11:53:08.624Z,0.60
2022-10-22T11:55:55.579Z,0.67
2022-10-22T11:58:30.795Z,0.90
2022-10-22T12:01:10.045Z,0.97
2022-10-22T12:03:44.097Z,0.60
2022-10-22T12:06:12.253Z,0.70
2022-10-22T12:08:51.728Z,0.70
2022-10-22T12:11:40.185Z,0.70
2022-10-22T12:14:29.746Z,1.10
2022-10-22T12:17:06.263Z,0.60
2022-10-22T12:19:41.362Z,0.83
2022-10-22T12:22:19.756Z,0.77
2022-10-22T12:24:55.147Z,1.10
2022-10-22T12:27:24.224Z,0.73
2022-10-22T12:29:56.908Z,0.80
2022-10-22T12:32:29.466Z,0.70
2022-10-22T12:34:56.754Z,0.83
2022-10-22T12:37:24.029Z,0.80
2022-10-22T12:39:51.616Z,0.60
2022-10-22T12:42:18.969Z,0.80
2022-10-22T12:44:47.699Z,0.70
2022-10-22T12:47:19.163Z,0.77
2022-10-22T12:49:49.404Z,0.80
2022-10-22T12:52:22.889Z,0.60
2022-10-22T12:54:55.793Z,0.70
2022-10-22T12:57:27.925Z,0.60
2022-10-22T13:02:32.664Z,0.63
2022-10-22T13:05:23.737Z,0.70
2022-10-22T13:08:17.468Z,0.70
2022-10-22T13:10:53.848Z,0.57
2022-10-22T13:13:32.778Z,0.80
2022-10-22T13:16:24.376Z,0.53
2022-10-22T13:18:53.118Z,0.80
2022-10-22T13:21:39.211Z,0.73
2022-10-22T13:24:24.225Z,0.80
2022-10-22T13:26:54.496Z,0.70
2022-10-22T13:29:23.797Z,0.80
2022-10-22T13:31:53.611Z,0.70
2022-10-22T13:34:24.391Z,0.60
2022-10-22T13:36:52.076Z,0.77
2022-10-22T13:39:21.375Z,0.93
2022-10-22T13:41:52.721Z,0.60
2022-10-22T13:44:20.304Z,1.10
2022-10-22T13:46:51.787Z,0.77
2022-10-22T13:49:23.621Z,0.70
2022-10-22T13:51:53.998Z,0.90
2022-10-22T13:54:24.501Z,0.63
2022-10-22T13:56:52.965Z,1.10
2022-10-22T13:59:22.909Z,0.70
2022-10-22T14:01:52.076Z,0.60
2022-10-22T14:04:23.565Z,1.20
2022-10-22T14:06:50.833Z,1.33
2022-10-22T14:09:18.957Z,0.80
2022-10-22T14:11:46.579Z,0.70
2022-10-22T14:14:17.406Z,0.77
2022-10-22T14:16:44.901Z,0.80
2022-10-22T14:19:16.918Z,0.60
2022-10-22T14:21:44.305Z,0.70
2022-10-22T14:24:13.222Z,1.33
2022-10-22T14:26:41.784Z,0.67
2022-10-22T14:29:10.301Z,0.90
2022-10-22T14:34:15.125Z,0.90
2022-10-22T14:36:44.265Z,1.00
2022-10-22T14:39:12.955Z,1.70
2022-10-22T14:41:41.471Z,0.83
2022-10-22T14:44:14.469Z,0.80
2022-10-22T14:46:44.378Z,0.80
2022-10-22T14:49:12.404Z,0.60
2022-10-22T14:51:40.035Z,0.70
2022-10-22T14:54:07.713Z,0.80
2022-10-22T14:56:34.958Z,0.67
2022-10-22T14:59:02.181Z,0.77
2022-10-22T15:01:29.698Z,0.90
2022-10-22T15:03:56.902Z,0.87
2022-10-22T15:06:24.346Z,0.90
2022-10-22T15:08:51.646Z,0.90
2022-10-22T15:11:18.949Z,1.30
2022-10-22T15:13:46.634Z,0.83
2022-10-22T15:16:15.969Z,0.80
2022-10-22T15:18:43.251Z,0.97
2022-10-22T15:21:19.724Z,0.83
2022-10-22T15:23:47.293Z,0.90
2022-10-22T15:26:14.839Z,0.83
2022-10-22T15:28:43.002Z,0.80
2022-10-22T15:31:14.316Z,0.90
2022-10-22T15:33:44.417Z,1.00
2022-10-22T15:36:14.923Z,0.90
2022-10-22T15:38:42.464Z,0.73
2022-10-22T15:41:12.715Z,0.93
2022-10-22T15:43:39.990Z,0.70
2022-10-22T15:46:14.641Z,0.60
2022-10-22T15:48:42.575Z,0.80
2022-10-22T15:51:12.205Z,0.80
2022-10-22T15:53:39.544Z,1.07
2022-10-22T15:56:06.924Z,0.80
2022-10-22T15:58:34.545Z,0.70
2022-10-22T16:01:06.767Z,0.60
2022-10-22T16:03:34.563Z,0.83
2022-10-22T16:06:01.845Z,1.07
2022-10-22T16:08:29.212Z,0.70
2022-10-22T16:10:56.639Z,0.80
2022-10-22T16:13:25.382Z,0.80
2022-10-22T16:15:53.356Z,0.80
2022-10-22T16:18:21.678Z,0.83
2022-10-22T16:20:48.796Z,0.80
2022-10-22T16:23:19.133Z,0.77
2022-10-22T16:25:47.003Z,0.70
2022-10-22T16:28:14.691Z,1.87
2022-10-22T16:30:42.287Z,0.80
2022-10-22T16:33:11.500Z,0.93
2022-10-22T16:35:43.037Z,0.83
2022-10-22T16:38:11.535Z,0.80
2022-10-22T16:40:39.206Z,0.90
2022-10-22T16:43:06.845Z,0.97
2022-10-22T16:45:34.185Z,1.00
2022-10-22T16:48:01.895Z,0.93
2022-10-22T16:50:29.420Z,1.17
2022-10-22T16:52:57.065Z,1.20
2022-10-22T16:55:24.453Z,1.00
2022-10-22T16:57:53.633Z,1.10
2022-10-22T17:00:21.437Z,1.30
2022-10-22T17:02:55.195Z,0.97
2022-10-22T17:05:22.506Z,1.00
2022-10-22T17:07:50.615Z,0.90
2022-10-22T17:12:54.440Z,1.10
2022-10-22T17:15:21.600Z,1.00
2022-10-22T17:17:52.765Z,1.23
2022-10-22T17:20:20.400Z,1.40
2022-10-22T17:22:49.690Z,1.03
2022-10-22T17:25:24.276Z,1.20
2022-10-22T17:27:54.141Z,1.10
2022-10-22T17:30:24.944Z,1.40
2022-10-22T17:32:57.611Z,1.37
2022-10-22T17:35:24.859Z,0.90
2022-10-22T17:37:52.132Z,0.97
2022-10-22T17:40:21.874Z,0.90
2022-10-22T17:42:49.766Z,1.00
2022-10-22T17:45:17.026Z,1.53
2022-10-22T17:47:44.258Z,1.40
2022-10-22T17:50:11.779Z,1.40
2022-10-22T17:52:39.349Z,1.80
2022-10-22T17:55:07.572Z,1.53
2022-10-22T17:57:34.925Z,1.50
2022-10-22T18:00:02.332Z,1.30
2022-10-22T18:02:32.815Z,1.10
2022-10-22T18:05:01.176Z,1.27
2022-10-22T18:07:28.369Z,1.20
2022-10-22T18:09:55.610Z,1.37
2022-10-22T18:12:22.937Z,1.20
2022-10-22T18:14:50.457Z,1.23
2022-10-22T18:17:17.875Z,1.13
2022-10-22T18:19:45.354Z,0.80
2022-10-22T18:22:15.435Z,0.93
2022-10-22T18:24:43.278Z,0.90
2022-10-22T18:27:10.797Z,1.27
2022-10-22T18:29:38.472Z,1.20
2022-10-22T18:32:12.132Z,1.00
2022-10-22T18:34:40.521Z,1.60
2022-10-22T18:37:07.815Z,1.13
2022-10-22T18:39:35.706Z,0.97
2022-10-22T18:42:06.430Z,4.50
2022-10-22T18:44:35.300Z,0.87
2022-10-22T18:47:02.623Z,1.10
2022-10-22T18:49:30.652Z,0.93
2022-10-22T18:52:00.763Z,0.90
2022-10-22T18:54:27.933Z,1.00
2022-10-22T18:56:59.459Z,0.97
2022-10-22T18:59:29.276Z,1.13
2022-10-22T19:01:59.665Z,1.20
2022-10-22T19:04:37.145Z,1.00
2022-10-22T19:07:06.161Z,1.13
2022-10-22T19:09:33.551Z,1.10
2022-10-22T19:12:01.870Z,1.30
2022-10-22T19:14:29.244Z,0.97
2022-10-22T19:16:56.559Z,1.17
2022-10-22T19:19:24.620Z,0.83
2022-10-22T19:21:51.910Z,1.40
2022-10-22T19:24:20.711Z,1.00
2022-10-22T19:26:49.576Z,1.10
2022-10-22T19:29:19.370Z,1.10
2022-10-22T19:31:47.764Z,1.10
2022-10-22T19:34:15.104Z,1.07
2022-10-22T19:36:42.375Z,1.10
2022-10-22T19:39:09.750Z,1.07
2022-10-22T19:41:38.224Z,1.37
2022-10-22T19:44:08.216Z,1.23
2022-10-22T19:46:35.566Z,1.37
2022-10-22T19:49:04.099Z,1.10
2022-10-22T19:51:33.983Z,1.30
2022-10-22T19:54:07.049Z,1.20
2022-10-22T19:56:36.055Z,1.00
2022-10-22T19:59:04.451Z,1.37
2022-10-22T20:01:32.277Z,1.17
2022-10-22T20:04:00.375Z,1.23
2022-10-22T20:06:27.865Z,1.40
2022-10-22T20:08:56.228Z,1.10
2022-10-22T20:11:27.587Z,1.33
2022-10-22T20:13:56.793Z,1.40
2022-10-22T20:16:27.345Z,1.27
2022-10-22T20:18:54.665Z,1.43
2022-10-22T20:21:22.409Z,1.33
2022-10-22T20:23:53.326Z,1.30
2022-10-22T20:26:23.601Z,1.50
2022-10-22T20:28:52.428Z,1.07
2022-10-22T20:31:22.010Z,1.33
2022-10-22T20:33:50.912Z,1.20
2022-10-22T20:36:22.596Z,1.40
2022-10-22T20:38:51.100Z,1.37
2022-10-22T20:41:23.315Z,1.33
2022-10-22T20:43:51.687Z,1.17
2022-10-22T20:46:27.672Z,1.27
2022-10-22T20:48:58.768Z,1.13
2022-10-22T20:51:26.143Z,1.20
2022-10-22T20:53:53.417Z,1.10
2022-10-22T20:56:23.913Z,1.20
2022-10-22T20:58:54.194Z,1.10
2022-10-22T21:01:24.266Z,1.17
2022-10-22T21:03:53.475Z,1.40
2022-10-22T21:06:23.366Z,1.13
2022-10-22T21:08:51.987Z,1.13
2022-10-22T21:11:20.824Z,1.27
2022-10-22T21:13:51.383Z,1.30
2022-10-22T21:16:19.913Z,1.20
2022-10-22T21:18:47.811Z,1.30
2022-10-22T21:21:17.284Z,1.13
2022-10-22T21:23:44.588Z,1.20
2022-10-22T21:26:12.808Z,1.00
2022-10-22T21:28:40.008Z,1.13
2022-10-22T21:31:10.996Z,1.00
2022-10-22T21:33:40.165Z,1.03
2022-10-22T21:36:09.255Z,1.00
2022-10-22T21:38:37.826Z,0.90
2022-10-22T21:41:14.124Z,1.20
2022-10-22T21:43:42.618Z,1.23
2022-10-22T21:46:13.330Z,1.07
2022-10-22T21:48:43.176Z,1.23
2022-10-22T21:51:15.187Z,1.20
2022-10-22T21:53:43.050Z,1.00
2022-10-22T21:56:22.376Z,1.33
2022-10-22T21:58:49.795Z,0.90
2022-10-22T22:01:17.990Z,1.00
2022-10-22T22:03:48.374Z,1.03
2022-10-22T22:06:21.111Z,1.17
2022-10-22T22:08:49.949Z,1.30
2022-10-22T22:11:20.307Z,0.90
2022-10-22T22:13:48.952Z,1.23
2022-10-22T22:16:27.099Z,1.23
2022-10-22T22:19:02.166Z,1.03
2022-10-22T22:21:30.121Z,1.57
2022-10-22T22:23:58.472Z,0.90
2022-10-22T22:26:29.814Z,1.10
2022-10-22T22:28:59.721Z,1.20
2022-10-22T22:31:30.083Z,1.10
2022-10-22T22:34:12.938Z,1.03
2022-10-22T22:36:48.149Z,1.53
2022-10-22T22:39:18.308Z,1.27
2022-10-22T22:41:49.162Z,1.47
2022-10-22T22:44:16.565Z,1.43
2022-10-22T22:46:45.075Z,1.77
2022-10-22T22:49:13.640Z,1.30
2022-10-22T22:51:40.895Z,1.30
2022-10-22T22:54:08.197Z,1.17
2022-10-22T22:56:36.271Z,1.37
2022-10-22T22:59:12.786Z,1.20
2022-10-22T23:01:40.277Z,1.10
2022-10-22T23:04:16.396Z,1.20
2022-10-22T23:06:43.674Z,1.10
2022-10-22T23:09:13.511Z,1.27
2022-10-22T23:11:42.824Z,1.17
2022-10-22T23:14:13.932Z,1.13
2022-10-22T23:16:45.672Z,1.20
2022-10-22T23:19:18.569Z,0.83
2022-10-22T23:21:51.636Z,1.10
2022-10-22T23:24:22.858Z,1.10
2022-10-22T23:26:52.455Z,0.97
2022-10-22T23:29:28.037Z,1.10
2022-10-22T23:31:59.720Z,1.00
2022-10-22T23:34:28.122Z,0.90
2022-10-22T23:36:56.185Z,1.20
2022-10-22T23:39:26.684Z,1.20
2022-10-22T23:41:54.784Z,1.00
2022-10-22T23:44:23.258Z,1.40
2022-10-22T23:46:51.208Z,1.03
2022-10-22T23:49:18.804Z,0.87
2022-10-22T23:51:46.145Z,1.10
2022-10-22T23:54:15.532Z,1.47
2022-10-22T23:56:43.152Z,1.13
2022-10-22T23:59:11.503Z,0.90
